Time;durP1;ratioP1;P1;durP2;ratioP2;P2;SDS_P1;SDS_P2;PMS_P1;PMS_P2;Temp;Humidity;BMP_temperature;BMP_pressure;BME280_temperature;BME280_humidity;BME280_pressure;Samples;Min_cycle;Max_cycle;Signal;HPM_P1;HPM_P2
2022/02/14 00:01:50;;;;;;;7.43;4.70;;;11.20;99.90;;;;;;4987695;28;20298;-75
2022/02/14 00:04:17;;;;;;;10.63;4.70;;;11.20;99.90;;;;;;4988210;28;20224;-77
2022/02/14 00:06:44;;;;;;;11.80;5.37;;;11.20;99.90;;;;;;4987462;28;20651;-77
2022/02/14 00:09:11;;;;;;;12.83;5.70;;;11.10;99.90;;;;;;4995755;28;20218;-77
2022/02/14 00:11:40;;;;;;;9.70;5.27;;;11.10;99.90;;;;;;5007269;28;20203;-78
2022/02/14 00:14:06;;;;;;;9.70;4.83;;;11.10;99.90;;;;;;5005897;28;20206;-78
2022/02/14 00:16:33;;;;;;;10.30;5.07;;;11.00;99.90;;;;;;4988393;28;20211;-79
2022/02/14 00:19:00;;;;;;;10.47;4.73;;;11.00;99.90;;;;;;4987476;28;20239;-75
2022/02/14 00:21:27;;;;;;;9.53;4.40;;;11.00;99.90;;;;;;4987260;28;20203;-78
2022/02/14 00:23:54;;;;;;;11.80;5.50;;;11.00;99.90;;;;;;4988358;28;20636;-79
2022/02/14 00:26:21;;;;;;;9.20;4.83;;;11.00;99.90;;;;;;4988020;28;20204;-79
2022/02/14 00:28:49;;;;;;;7.03;4.37;;;10.90;99.90;;;;;;4986705;28;20212;-78
2022/02/14 00:31:16;;;;;;;10.27;4.70;;;11.00;99.90;;;;;;4987803;28;20211;-78
2022/02/14 00:33:43;;;;;;;8.63;4.50;;;11.00;99.90;;;;;;5002326;28;20604;-79
2022/02/14 00:36:10;;;;;;;7.23;4.80;;;10.90;99.90;;;;;;5007264;28;20200;-79
2022/02/14 00:38:36;;;;;;;12.13;4.60;;;10.90;99.90;;;;;;5007217;28;20209;-78
2022/02/14 00:41:03;;;;;;;10.97;4.67;;;10.90;99.90;;;;;;5006090;28;20212;-78
2022/02/14 00:43:30;;;;;;;14.43;5.23;;;11.00;99.90;;;;;;5007872;28;20756;-78
2022/02/14 00:45:58;;;;;;;7.20;5.40;;;10.90;99.90;;;;;;5000359;28;20207;-79
2022/02/14 00:48:25;;;;;;;8.47;4.30;;;10.90;99.90;;;;;;5006986;28;20204;-78
2022/02/14 00:50:52;;;;;;;9.73;4.63;;;10.90;99.90;;;;;;5006526;28;20198;-79
2022/02/14 00:53:19;;;;;;;13.80;4.70;;;10.90;99.90;;;;;;5007819;28;20207;-77
2022/02/14 00:55:46;;;;;;;10.13;4.10;;;10.90;99.90;;;;;;4995133;28;20294;-78
2022/02/14 00:58:14;;;;;;;8.27;4.50;;;10.90;99.90;;;;;;4987655;28;20204;-78
2022/02/14 01:00:40;;;;;;;9.10;5.10;;;10.80;99.90;;;;;;5003415;28;20219;-77
2022/02/14 01:03:09;;;;;;;8.57;4.67;;;10.90;99.90;;;;;;5005482;28;20207;-79
2022/02/14 01:05:36;;;;;;;6.50;4.50;;;10.80;99.90;;;;;;5006781;28;20238;-76
2022/02/14 01:08:03;;;;;;;10.33;4.70;;;10.90;99.90;;;;;;4993481;28;20664;-79
2022/02/14 01:10:30;;;;;;;8.73;4.30;;;11.00;99.90;;;;;;4986344;28;20204;-78
2022/02/14 01:12:57;;;;;;;8.33;4.47;;;10.90;99.90;;;;;;4986962;28;20207;-79
2022/02/14 01:15:23;;;;;;;9.70;4.53;;;10.90;99.90;;;;;;4986682;28;20200;-78
2022/02/14 01:17:50;;;;;;;10.17;5.37;;;11.00;99.90;;;;;;5003803;28;20246;-78
2022/02/14 01:20:18;;;;;;;8.40;4.53;;;11.00;99.90;;;;;;5006727;28;20215;-78
2022/02/14 01:22:45;;;;;;;7.80;5.03;;;11.00;99.90;;;;;;5006090;28;20626;-76
2022/02/14 01:25:13;;;;;;;9.30;4.43;;;11.10;99.90;;;;;;5005856;28;20522;-76
2022/02/14 01:27:40;;;;;;;12.60;4.60;;;11.10;99.90;;;;;;5005962;28;20207;-77
2022/02/14 01:30:08;;;;;;;11.43;4.20;;;11.10;99.90;;;;;;5006508;28;20203;-76
2022/02/14 01:32:36;;;;;;;7.80;4.30;;;11.20;99.90;;;;;;5006484;28;20207;-77
2022/02/14 01:35:03;;;;;;;8.30;4.10;;;11.20;99.90;;;;;;5006031;28;20253;-76
2022/02/14 01:37:32;;;;;;;11.10;4.47;;;11.20;99.90;;;;;;5002308;28;20235;-77
2022/02/14 01:39:59;;;;;;;10.87;4.40;;;11.30;99.90;;;;;;4985937;28;20210;-78
2022/02/14 01:42:26;;;;;;;9.50;5.27;;;11.20;99.90;;;;;;4986435;28;20200;-78
2022/02/14 01:44:53;;;;;;;11.53;4.03;;;11.20;99.90;;;;;;4993532;28;20223;-77
2022/02/14 01:47:22;;;;;;;9.30;4.90;;;11.20;99.90;;;;;;5005491;28;20638;-76
2022/02/14 01:49:49;;;;;;;9.53;4.30;;;11.30;99.90;;;;;;4993203;28;20538;-76
2022/02/14 01:52:17;;;;;;;9.77;4.63;;;11.20;99.90;;;;;;4985609;28;20215;-77
2022/02/14 01:54:48;;;;;;;13.13;5.53;;;11.30;99.90;;;;;;4997800;28;20203;-78
2022/02/14 01:57:17;;;;;;;10.57;4.40;;;11.30;99.90;;;;;;5001457;28;20215;-77
2022/02/14 01:59:44;;;;;;;10.10;4.37;;;11.30;99.90;;;;;;4985380;28;20365;-77
2022/02/14 02:02:12;;;;;;;11.67;4.33;;;11.30;99.90;;;;;;4986492;28;20219;-77
2022/02/14 02:04:42;;;;;;;9.07;4.93;;;11.30;99.90;;;;;;5003056;28;20246;-77
2022/02/14 02:07:09;;;;;;;8.70;4.70;;;11.30;99.90;;;;;;5005347;28;20214;-76
2022/02/14 02:09:36;;;;;;;10.40;4.47;;;11.30;99.90;;;;;;5005456;28;20207;-76
2022/02/14 02:12:24;;;;;;;8.33;4.53;;;11.30;99.90;;;;;;5005047;28;20203;-78
2022/02/14 02:14:51;;;;;;;10.60;4.00;;;11.40;99.90;;;;;;4993970;28;20303;-77
2022/02/14 02:17:18;;;;;;;10.33;4.63;;;11.40;99.90;;;;;;4985297;28;20195;-77
2022/02/14 02:19:45;;;;;;;9.10;4.33;;;11.40;99.90;;;;;;4984901;28;20203;-76
2022/02/14 02:22:12;;;;;;;8.07;4.40;;;11.40;99.90;;;;;;4985925;28;20204;-78
2022/02/14 02:24:46;;;;;;;14.27;5.00;;;11.50;99.90;;;;;;4985999;28;20265;-78
2022/02/14 02:27:13;;;;;;;12.20;4.43;;;11.40;99.90;;;;;;4985493;28;20207;-77
2022/02/14 02:29:40;;;;;;;6.90;4.70;;;11.40;99.90;;;;;;4985838;28;20504;-76
2022/02/14 02:32:10;;;;;;;11.53;4.63;;;11.50;99.90;;;;;;4986041;28;20207;-78
2022/02/14 02:34:38;;;;;;;9.13;4.07;;;11.50;99.90;;;;;;4985524;28;20566;-78
2022/02/14 02:37:06;;;;;;;7.53;4.00;;;11.50;99.90;;;;;;4985009;28;20719;-76
2022/02/14 02:39:33;;;;;;;10.23;3.90;;;11.50;99.90;;;;;;4986249;28;20236;-76
2022/02/14 02:42:02;;;;;;;8.70;4.03;;;11.60;99.90;;;;;;4987651;28;20207;-77
2022/02/14 02:44:29;;;;;;;9.23;3.80;;;11.50;99.90;;;;;;4994450;28;20278;-77
2022/02/14 02:46:56;;;;;;;6.37;3.60;;;11.50;99.90;;;;;;4997332;28;20595;-77
2022/02/14 02:49:24;;;;;;;9.80;3.70;;;11.50;99.90;;;;;;4997005;28;20208;-77
2022/02/14 02:51:52;;;;;;;5.77;3.77;;;11.60;99.90;;;;;;5001484;28;20203;-77
2022/02/14 02:54:20;;;;;;;7.17;3.60;;;11.60;99.90;;;;;;4993808;28;20204;-78
2022/02/14 02:56:49;;;;;;;9.87;3.97;;;11.50;99.90;;;;;;4984246;28;20204;-78
2022/02/14 02:59:18;;;;;;;8.37;3.70;;;11.50;99.90;;;;;;4985255;28;20219;-78
2022/02/14 03:01:45;;;;;;;7.97;3.57;;;11.50;99.90;;;;;;4984122;28;20212;-77
2022/02/14 03:04:14;;;;;;;10.80;3.73;;;11.50;99.90;;;;;;4984668;28;20227;-79
2022/02/14 03:06:41;;;;;;;8.93;3.30;;;11.50;99.90;;;;;;4984822;28;20208;-75
2022/02/14 03:09:09;;;;;;;8.13;3.20;;;11.50;99.90;;;;;;4984701;28;20207;-77
2022/02/14 03:11:37;;;;;;;11.33;3.80;;;11.50;99.90;;;;;;4984390;28;20254;-77
2022/02/14 03:14:04;;;;;;;4.07;2.77;;;11.50;99.90;;;;;;4984561;28;20208;-78
2022/02/14 03:16:33;;;;;;;7.40;3.23;;;11.50;99.90;;;;;;4984366;28;20207;-79
2022/02/14 03:19:00;;;;;;;6.10;3.73;;;11.60;99.90;;;;;;4985384;28;20970;-79
2022/02/14 03:21:26;;;;;;;5.53;2.80;;;11.60;99.90;;;;;;4984713;28;20895;-79
2022/02/14 03:23:54;;;;;;;6.67;2.97;;;11.60;99.90;;;;;;4985777;28;20216;-78
2022/02/14 03:26:22;;;;;;;6.50;2.83;;;11.50;99.90;;;;;;4987919;28;20231;-79
2022/02/14 03:28:51;;;;;;;7.60;3.10;;;11.50;99.90;;;;;;4988681;28;20200;-79
2022/02/14 03:31:18;;;;;;;4.73;2.90;;;11.60;99.90;;;;;;4989163;28;20208;-78
2022/02/14 03:33:46;;;;;;;7.40;3.23;;;11.60;99.90;;;;;;4988340;28;20208;-77
2022/02/14 03:36:15;;;;;;;8.40;3.03;;;11.70;99.90;;;;;;4988912;28;20200;-78
2022/02/14 03:38:43;;;;;;;5.87;2.70;;;11.70;99.90;;;;;;5006714;28;20217;-78
2022/02/14 03:41:10;;;;;;;5.60;2.73;;;11.60;99.90;;;;;;5008639;28;20744;-77
2022/02/14 03:43:36;;;;;;;6.57;3.13;;;11.60;99.90;;;;;;5008632;28;20489;-79
2022/02/14 03:46:04;;;;;;;11.60;3.23;;;11.70;99.90;;;;;;5004586;28;20825;-76
2022/02/14 03:48:30;;;;;;;6.47;3.10;;;11.70;99.90;;;;;;4988964;28;20214;-77
2022/02/14 03:51:00;;;;;;;7.10;3.00;;;11.70;99.90;;;;;;4987585;28;20370;-78
2022/02/14 03:53:27;;;;;;;8.57;3.73;;;11.60;99.90;;;;;;4988746;28;20211;-78
2022/02/14 03:55:54;;;;;;;8.17;2.80;;;11.70;99.90;;;;;;5005673;28;20215;-76
2022/02/14 03:58:21;;;;;;;10.00;3.30;;;11.70;99.90;;;;;;5007641;28;20207;-77
2022/02/14 04:00:47;;;;;;;7.37;2.87;;;11.70;99.90;;;;;;4993448;28;20204;-76
2022/02/14 04:03:14;;;;;;;4.77;2.60;;;11.70;99.90;;;;;;4988792;28;20199;-76
2022/02/14 04:05:41;;;;;;;6.00;2.80;;;11.70;99.90;;;;;;4988225;28;20573;-75
2022/02/14 04:08:09;;;;;;;5.27;2.77;;;11.70;99.90;;;;;;4988211;28;20215;-78
2022/02/14 04:10:36;;;;;;;5.50;2.30;;;11.70;99.90;;;;;;4988278;28;20196;-78
2022/02/14 04:13:03;;;;;;;7.40;2.60;;;11.80;99.90;;;;;;5003708;28;20382;-78
2022/02/14 04:15:29;;;;;;;4.73;2.60;;;11.80;99.90;;;;;;5007360;28;20199;-78
2022/02/14 04:17:57;;;;;;;4.60;2.33;;;11.80;99.90;;;;;;5007373;28;20243;-76
2022/02/14 04:20:24;;;;;;;5.97;2.53;;;11.80;99.90;;;;;;5006747;28;20201;-78
2022/02/14 04:22:51;;;;;;;5.13;2.73;;;11.70;99.90;;;;;;5008007;28;20203;-77
2022/02/14 04:25:19;;;;;;;4.80;2.50;;;11.70;99.90;;;;;;5007474;28;20378;-77
2022/02/14 04:27:46;;;;;;;6.03;2.43;;;11.80;99.90;;;;;;5007370;28;20207;-76
2022/02/14 04:30:14;;;;;;;4.43;2.33;;;11.80;99.90;;;;;;5008091;28;20207;-79
2022/02/14 04:32:41;;;;;;;7.60;2.93;;;11.80;99.90;;;;;;4995924;28;20215;-77
2022/02/14 04:35:09;;;;;;;6.50;2.60;;;11.80;99.90;;;;;;4987094;28;20200;-77
2022/02/14 04:37:36;;;;;;;6.33;2.93;;;11.70;99.90;;;;;;4987966;28;20238;-76
2022/02/14 04:40:03;;;;;;;6.23;2.13;;;11.70;99.90;;;;;;4987035;28;20349;-78
2022/02/14 04:42:31;;;;;;;4.70;2.37;;;11.70;99.90;;;;;;4988115;28;20204;-77
2022/02/14 04:44:58;;;;;;;6.73;3.10;;;11.70;99.90;;;;;;5023708;28;20210;-76
2022/02/14 04:47:25;;;;;;;4.93;2.83;;;11.70;99.90;;;;;;5019851;28;20803;-78
2022/02/14 04:49:52;;;;;;;6.10;2.90;;;11.70;99.90;;;;;;5008158;28;20227;-78
2022/02/14 04:52:18;;;;;;;4.83;2.40;;;11.70;99.90;;;;;;5005113;28;20210;-79
2022/02/14 04:54:45;;;;;;;7.87;2.73;;;11.70;99.90;;;;;;4986946;28;20262;-79
2022/02/14 04:57:12;;;;;;;3.90;2.30;;;11.70;99.90;;;;;;4987667;28;20208;-80
2022/02/14 04:59:40;;;;;;;7.53;2.60;;;11.70;99.90;;;;;;5001522;28;20211;-78
2022/02/14 05:02:07;;;;;;;5.20;2.30;;;11.70;99.90;;;;;;5006120;28;20214;-78
2022/02/14 05:04:33;;;;;;;5.30;2.43;;;11.70;99.90;;;;;;5007052;28;20214;-78
2022/02/14 05:07:00;;;;;;;10.00;2.63;;;11.70;99.90;;;;;;4997545;28;20227;-76
2022/02/14 05:09:27;;;;;;;7.77;2.83;;;11.60;99.90;;;;;;4986307;28;20910;-77
2022/02/14 05:11:54;;;;;;;4.73;2.37;;;11.70;99.90;;;;;;4987476;28;20200;-78
2022/02/14 05:14:21;;;;;;;4.70;2.40;;;11.70;99.90;;;;;;4987575;28;20250;-78
2022/02/14 05:16:49;;;;;;;8.27;3.27;;;11.60;99.90;;;;;;4986432;28;20196;-77
2022/02/14 05:19:16;;;;;;;7.80;2.63;;;11.60;99.90;;;;;;4986832;28;20236;-79
2022/02/14 05:21:43;;;;;;;4.60;2.30;;;11.60;99.90;;;;;;4987511;28;20467;-78
2022/02/14 05:24:10;;;;;;;3.13;2.57;;;11.60;99.90;;;;;;4986183;28;20200;-77
2022/02/14 05:26:37;;;;;;;7.77;2.53;;;11.60;99.90;;;;;;4997255;28;20230;-77
2022/02/14 05:29:03;;;;;;;4.67;2.50;;;11.60;99.90;;;;;;5006275;28;20207;-78
2022/02/14 05:31:30;;;;;;;4.93;2.50;;;11.60;99.90;;;;;;5006029;28;20208;-77
2022/02/14 05:33:59;;;;;;;4.90;2.70;;;11.60;99.90;;;;;;5006359;28;20203;-77
2022/02/14 05:36:26;;;;;;;6.60;2.57;;;11.60;99.90;;;;;;5005197;28;20218;-76
2022/02/14 05:38:53;;;;;;;4.73;2.67;;;11.70;99.90;;;;;;5005835;28;20218;-75
2022/02/14 05:41:21;;;;;;;6.30;2.93;;;11.70;99.90;;;;;;5001932;28;20212;-77
2022/02/14 05:43:48;;;;;;;5.73;2.60;;;11.70;99.90;;;;;;4985512;28;20200;-80
2022/02/14 05:46:16;;;;;;;3.37;2.20;;;11.70;99.90;;;;;;4990565;28;20234;-77
2022/02/14 05:48:43;;;;;;;5.83;2.40;;;11.60;99.90;;;;;;5005337;28;20214;-76
2022/02/14 05:51:12;;;;;;;7.40;2.70;;;11.70;99.90;;;;;;4993387;28;20219;-77
2022/02/14 05:53:39;;;;;;;10.30;2.53;;;11.70;99.90;;;;;;4986385;28;20761;-76
2022/02/14 05:56:08;;;;;;;6.87;2.10;;;11.70;99.90;;;;;;4986377;28;20323;-76
2022/02/14 05:58:35;;;;;;;5.60;2.17;;;11.60;99.90;;;;;;4985511;28;20636;-77
2022/02/14 06:01:02;;;;;;;7.50;3.47;;;11.60;99.90;;;;;;4986156;28;20320;-79
2022/02/14 06:03:29;;;;;;;7.23;2.67;;;11.50;99.90;;;;;;4986802;28;20223;-78
2022/02/14 06:05:56;;;;;;;4.07;2.40;;;11.40;99.90;;;;;;4985124;28;20220;-78
2022/02/14 06:08:24;;;;;;;5.73;2.13;;;11.20;99.90;;;;;;4985616;28;20196;-77
2022/02/14 06:10:50;;;;;;;7.77;4.17;;;11.00;99.90;;;;;;4986385;28;20226;-78
2022/02/14 06:13:17;;;;;;;4.20;2.23;;;10.90;99.90;;;;;;4986098;28;20631;-75
2022/02/14 06:15:44;;;;;;;6.47;2.10;;;10.90;99.90;;;;;;4985741;28;20299;-77
2022/02/14 06:18:11;;;;;;;4.60;1.67;;;10.80;99.90;;;;;;5004220;28;20737;-77
2022/02/14 06:20:38;;;;;;;6.00;1.93;;;10.70;99.90;;;;;;4991770;28;20518;-77
2022/02/14 06:23:05;;;;;;;4.30;1.83;;;10.60;99.90;;;;;;4985984;28;20734;-77
2022/02/14 06:25:33;;;;;;;8.40;2.80;;;10.60;99.90;;;;;;4985925;28;20211;-77
2022/02/14 06:28:00;;;;;;;8.70;2.17;;;10.60;99.90;;;;;;4986209;28;20215;-77
2022/02/14 06:30:27;;;;;;;7.90;2.07;;;10.50;99.90;;;;;;4986438;28;20203;-77
2022/02/14 06:32:54;;;;;;;6.90;2.07;;;10.40;99.90;;;;;;4985181;28;20307;-77
2022/02/14 06:35:22;;;;;;;10.03;2.70;;;10.40;99.90;;;;;;4985461;28;20287;-77
2022/02/14 06:37:49;;;;;;;10.33;2.60;;;10.30;99.90;;;;;;4985781;28;20231;-79
2022/02/14 06:40:16;;;;;;;9.13;2.93;;;10.30;99.90;;;;;;4985125;28;20946;-77
2022/02/14 06:42:47;;;;;;;9.33;2.63;;;10.10;99.90;;;;;;4985675;28;20218;-75
2022/02/14 06:45:15;;;;;;;10.17;2.83;;;10.10;99.90;;;;;;4986735;28;20222;-76
2022/02/14 06:47:42;;;;;;;13.83;2.77;;;10.00;99.90;;;;;;4984615;28;20322;-80
2022/02/14 06:50:10;;;;;;;14.93;2.83;;;10.00;99.90;;;;;;4985118;28;20200;-77
2022/02/14 06:52:37;;;;;;;14.20;3.27;;;9.90;99.90;;;;;;4999524;28;20302;-76
2022/02/14 06:55:05;;;;;;;17.00;4.07;;;9.90;99.90;;;;;;5004406;28;20265;-77
2022/02/14 06:57:32;;;;;;;16.40;2.93;;;9.80;99.90;;;;;;5006508;28;20198;-78
2022/02/14 07:00:01;;;;;;;11.33;3.40;;;9.80;99.90;;;;;;5023314;28;20232;-78
2022/02/14 07:02:28;;;;;;;10.70;2.90;;;9.80;99.90;;;;;;5025094;28;20198;-78
2022/02/14 07:04:55;;;;;;;16.03;4.80;;;9.70;99.90;;;;;;5014937;28;20224;-78
2022/02/14 07:07:22;;;;;;;13.57;3.03;;;9.60;99.90;;;;;;5004931;28;20227;-78
2022/02/14 07:09:49;;;;;;;13.87;3.90;;;9.60;99.90;;;;;;5003940;28;20226;-77
2022/02/14 07:12:16;;;;;;;14.27;2.60;;;9.50;99.90;;;;;;5001776;28;20226;-75
2022/02/14 07:14:42;;;;;;;19.80;4.87;;;9.50;99.90;;;;;;4984433;28;20875;-78
2022/02/14 07:17:11;;;;;;;16.37;3.23;;;9.50;99.90;;;;;;4984714;28;20208;-79
2022/02/14 07:19:39;;;;;;;11.80;3.10;;;9.50;99.90;;;;;;4985186;28;20289;-79
2022/02/14 07:22:06;;;;;;;17.50;3.30;;;9.50;99.90;;;;;;4984212;28;20281;-78
2022/02/14 07:24:33;;;;;;;15.73;3.10;;;9.40;99.90;;;;;;4985285;28;20895;-79
2022/02/14 07:27:00;;;;;;;14.03;3.60;;;9.40;99.90;;;;;;4985177;28;21005;-76
2022/02/14 07:29:27;;;;;;;19.40;3.87;;;9.40;99.90;;;;;;4996276;28;20302;-78
2022/02/14 07:31:54;;;;;;;16.87;3.70;;;9.40;99.90;;;;;;5004268;28;20620;-79
2022/02/14 07:34:23;;;;;;;13.30;3.60;;;9.40;99.90;;;;;;4991392;28;20219;-79
2022/02/14 07:36:50;;;;;;;10.67;3.27;;;9.40;99.90;;;;;;4983777;28;20220;-78
2022/02/14 07:39:16;;;;;;;11.80;3.73;;;9.40;99.90;;;;;;4985471;28;20203;-78
2022/02/14 07:41:43;;;;;;;21.10;3.33;;;9.40;99.90;;;;;;4985406;28;20216;-77
2022/02/14 07:44:11;;;;;;;19.27;3.20;;;9.40;99.90;;;;;;4984570;28;20231;-78
2022/02/14 07:46:37;;;;;;;14.73;4.23;;;9.40;99.90;;;;;;4988042;28;20414;-77
2022/02/14 07:49:04;;;;;;;13.83;3.17;;;9.40;99.90;;;;;;4984263;28;20354;-78
2022/02/14 07:51:32;;;;;;;12.53;3.37;;;9.40;99.90;;;;;;4984219;28;20200;-77
2022/02/14 07:53:59;;;;;;;21.47;3.63;;;9.40;99.90;;;;;;4984312;28;20215;-76
2022/02/14 07:56:26;;;;;;;16.50;4.03;;;9.40;99.90;;;;;;4998190;28;20203;-78
2022/02/14 07:58:53;;;;;;;14.37;3.47;;;9.40;99.90;;;;;;4989882;28;20207;-78
2022/02/14 08:01:20;;;;;;;13.90;3.07;;;9.40;99.90;;;;;;4984379;28;20208;-77
2022/02/14 08:03:47;;;;;;;17.77;3.53;;;9.40;99.90;;;;;;4993367;28;20206;-79
2022/02/14 08:06:14;;;;;;;15.00;3.83;;;9.40;99.90;;;;;;5002748;28;20234;-76
2022/02/14 08:08:42;;;;;;;17.87;3.23;;;9.40;99.90;;;;;;4983609;28;20218;-76
2022/02/14 08:11:09;;;;;;;15.97;3.80;;;9.40;99.90;;;;;;4989873;28;20219;-78
2022/02/14 08:13:36;;;;;;;13.93;3.53;;;9.40;99.90;;;;;;5008034;28;20207;-77
2022/02/14 08:16:02;;;;;;;16.77;3.23;;;9.40;99.90;;;;;;5007308;28;20207;-79
2022/02/14 08:18:29;;;;;;;14.50;2.93;;;9.40;99.90;;;;;;4988231;28;20247;-77
2022/02/14 08:20:57;;;;;;;20.03;3.47;;;9.40;99.90;;;;;;4988350;28;20207;-78
2022/02/14 08:23:23;;;;;;;14.53;3.20;;;9.40;99.90;;;;;;4987668;28;20212;-79
2022/02/14 08:25:52;;;;;;;14.77;3.30;;;9.40;99.90;;;;;;4986836;28;20215;-78
2022/02/14 08:28:19;;;;;;;18.73;4.80;;;9.50;99.90;;;;;;4988012;28;20224;-74
2022/02/14 08:30:46;;;;;;;17.90;3.23;;;9.50;99.90;;;;;;4988864;28;20211;-76
2022/02/14 08:33:12;;;;;;;11.60;2.77;;;9.60;99.90;;;;;;5007376;28;20215;-76
2022/02/14 08:35:39;;;;;;;13.03;2.63;;;9.60;99.90;;;;;;5007660;28;20203;-77
2022/02/14 08:38:07;;;;;;;14.10;2.67;;;9.70;99.90;;;;;;5001563;28;20639;-75
2022/02/14 08:40:35;;;;;;;20.87;4.10;;;9.70;99.90;;;;;;4987535;28;20207;-76
2022/02/14 08:43:04;;;;;;;14.93;3.10;;;9.70;99.90;;;;;;4988014;28;20204;-76
2022/02/14 08:46:06;;;;;;;14.20;2.93;;;9.70;99.90;;;;;;4952109;28;20639;-79
2022/02/14 08:48:33;;;;;;;12.00;3.03;;;9.80;99.90;;;;;;5000593;28;20214;-78
2022/02/14 08:51:02;;;;;;;13.30;3.23;;;9.80;99.90;;;;;;5006344;28;20619;-78
2022/02/14 08:53:31;;;;;;;18.37;4.10;;;9.90;99.90;;;;;;5003919;28;20199;-78
2022/02/14 08:55:59;;;;;;;19.83;5.10;;;9.90;99.90;;;;;;4987624;28;20207;-76
2022/02/14 08:58:28;;;;;;;14.10;3.10;;;9.90;99.90;;;;;;4997341;28;20223;-77
2022/02/14 09:00:55;;;;;;;14.77;4.33;;;9.90;99.90;;;;;;5006137;28;20204;-77
2022/02/14 09:03:21;;;;;;;19.83;3.53;;;9.90;99.90;;;;;;5003025;28;20218;-78
2022/02/14 09:05:48;;;;;;;13.77;3.20;;;9.80;99.90;;;;;;5006938;28;20211;-78
2022/02/14 09:08:15;;;;;;;15.37;4.37;;;9.80;99.90;;;;;;4987685;28;20228;-79
2022/02/14 09:10:42;;;;;;;19.83;3.53;;;9.80;99.90;;;;;;4986182;28;20211;-78
2022/02/14 09:13:09;;;;;;;15.13;3.10;;;9.80;99.90;;;;;;5002702;28;20727;-77
2022/02/14 09:15:37;;;;;;;14.67;3.30;;;9.80;99.90;;;;;;5005769;28;20226;-75
2022/02/14 09:18:04;;;;;;;13.97;3.07;;;9.80;99.90;;;;;;5005746;28;20234;-78
2022/02/14 09:20:31;;;;;;;14.37;3.00;;;9.80;99.90;;;;;;5000220;28;20216;-80
2022/02/14 09:23:00;;;;;;;14.30;3.53;;;9.80;99.90;;;;;;4984710;28;20216;-78
2022/02/14 09:25:27;;;;;;;16.67;4.10;;;9.80;99.90;;;;;;4986551;28;20216;-79
2022/02/14 09:27:54;;;;;;;11.17;3.10;;;9.80;99.90;;;;;;4986322;28;20232;-80
2022/02/14 09:30:22;;;;;;;20.13;4.00;;;9.80;99.90;;;;;;4986669;28;20212;-80
2022/02/14 09:32:50;;;;;;;18.33;3.73;;;9.80;99.90;;;;;;4986201;28;20208;-78
2022/02/14 09:35:26;;;;;;;17.03;4.10;;;9.80;99.90;;;;;;4986231;28;20204;-77
2022/02/14 09:37:53;;;;;;;15.93;3.33;;;9.90;99.90;;;;;;4986304;28;20309;-77
2022/02/14 09:40:21;;;;;;;14.60;3.40;;;9.80;99.90;;;;;;4986749;28;20331;-80
2022/02/14 09:42:48;;;;;;;18.93;3.70;;;9.80;99.90;;;;;;4985997;28;20208;-77
2022/02/14 09:45:16;;;;;;;12.47;3.90;;;9.80;99.90;;;;;;4987917;28;20520;-79
2022/02/14 09:47:43;;;;;;;23.80;4.07;;;9.90;99.90;;;;;;5002444;28;20230;-77
2022/02/14 09:50:12;;;;;;;18.93;3.17;;;9.90;99.90;;;;;;4997812;28;20219;-78
2022/02/14 09:52:39;;;;;;;10.70;3.67;;;10.00;99.90;;;;;;4986097;28;20200;-79
2022/02/14 09:55:06;;;;;;;20.07;4.67;;;10.00;99.90;;;;;;4985614;28;20216;-78
2022/02/14 09:57:33;;;;;;;12.97;3.00;;;9.90;99.90;;;;;;4985652;28;20208;-77
2022/02/14 09:59:59;;;;;;;11.73;3.10;;;10.00;99.90;;;;;;4985611;28;20227;-77
2022/02/14 10:02:26;;;;;;;13.47;3.10;;;10.00;99.90;;;;;;4995235;28;20535;-76
2022/02/14 10:05:05;;;;;;;11.40;3.20;;;10.00;99.90;;;;;;5003786;28;20246;-78
2022/02/14 10:07:41;;;;;;;18.30;3.00;;;10.00;99.90;;;;;;5005735;28;20234;-77
2022/02/14 10:10:15;;;;;;;10.73;3.27;;;10.10;99.90;;;;;;5004458;28;20203;-77
2022/02/14 10:12:44;;;;;;;18.97;3.73;;;10.10;99.90;;;;;;5004673;28;20199;-76
2022/02/14 10:15:11;;;;;;;18.10;3.63;;;10.10;99.90;;;;;;5005343;28;20211;-75
2022/02/14 10:17:39;;;;;;;20.50;4.27;;;10.10;99.90;;;;;;5001394;28;20233;-77
2022/02/14 10:20:07;;;;;;;14.13;3.67;;;10.10;99.90;;;;;;5005535;28;20215;-77
2022/02/14 10:22:50;;;;;;;14.53;3.00;;;10.10;99.90;;;;;;5002971;28;20322;-77
2022/02/14 10:25:28;;;;;;;9.33;3.70;;;10.10;99.90;;;;;;4985495;28;20290;-79
2022/02/14 10:27:55;;;;;;;13.37;3.57;;;10.10;99.90;;;;;;4985576;28;20212;-78
2022/02/14 10:30:22;;;;;;;12.13;3.50;;;10.10;99.90;;;;;;4986525;28;20200;-79
2022/02/14 10:32:53;;;;;;;10.73;3.57;;;10.10;99.90;;;;;;4985598;28;20616;-79
2022/02/14 10:35:20;;;;;;;17.00;4.07;;;10.00;99.90;;;;;;5003477;28;20220;-76
2022/02/14 10:37:48;;;;;;;17.20;3.77;;;10.00;99.90;;;;;;5010026;28;20226;-78
2022/02/14 10:40:28;;;;;;;15.13;3.40;;;10.00;99.90;;;;;;5025205;28;20210;-76
2022/02/14 10:42:55;;;;;;;21.47;5.30;;;10.00;99.90;;;;;;5024946;28;20198;-77
2022/02/14 10:45:22;;;;;;;11.30;2.83;;;10.00;99.90;;;;;;5025081;28;20199;-75
2022/02/14 10:47:50;;;;;;;14.27;4.00;;;9.90;99.90;;;;;;5004293;28;20234;-76
2022/02/14 10:50:19;;;;;;;18.47;5.07;;;10.00;99.90;;;;;;5004852;28;20204;-76
2022/02/14 10:52:48;;;;;;;19.27;4.57;;;10.00;99.90;;;;;;5004133;28;20551;-77
2022/02/14 10:55:18;;;;;;;19.67;4.90;;;10.10;99.90;;;;;;5001575;28;20805;-78
2022/02/14 10:57:47;;;;;;;15.60;3.80;;;10.20;99.90;;;;;;4983800;28;20208;-76
2022/02/14 11:00:16;;;;;;;14.37;3.73;;;10.20;99.90;;;;;;4984074;28;20512;-75
2022/02/14 11:02:44;;;;;;;20.53;4.40;;;10.30;99.90;;;;;;4984218;28;20216;-77
2022/02/14 11:05:13;;;;;;;13.07;4.00;;;10.40;99.90;;;;;;4988267;28;20225;-76
2022/02/14 11:07:40;;;;;;;17.97;4.17;;;10.50;99.90;;;;;;5003346;28;20231;-76
2022/02/14 11:10:10;;;;;;;14.30;3.67;;;10.60;99.90;;;;;;5004214;28;20215;-77
2022/02/14 11:12:40;;;;;;;19.47;3.50;;;10.70;99.90;;;;;;5003884;28;20211;-75
2022/02/14 11:15:10;;;;;;;16.93;3.30;;;10.70;99.90;;;;;;5003657;28;21023;-75
2022/02/14 11:17:44;;;;;;;15.03;4.53;;;10.80;99.90;;;;;;5003729;28;20215;-76
2022/02/14 11:20:11;;;;;;;12.87;2.90;;;10.90;99.90;;;;;;5003570;28;20796;-77
2022/02/14 11:22:40;;;;;;;16.13;3.17;;;10.90;99.90;;;;;;4986841;28;20211;-75
2022/02/14 11:25:20;;;;;;;15.80;4.23;;;11.00;99.90;;;;;;4983928;28;20620;-79
2022/02/14 11:27:57;;;;;;;19.97;4.03;;;11.00;99.90;;;;;;4984288;28;20231;-77
2022/02/14 11:30:29;;;;;;;15.20;3.63;;;11.10;99.90;;;;;;4984038;28;20211;-78
2022/02/14 11:33:13;;;;;;;12.60;3.37;;;11.20;99.90;;;;;;4985134;28;20635;-79
2022/02/14 11:35:41;;;;;;;22.27;5.40;;;11.30;99.90;;;;;;4982955;28;20303;-77
2022/02/14 11:38:09;;;;;;;17.17;3.40;;;11.40;99.90;;;;;;4984128;28;20243;-77
2022/02/14 11:40:39;;;;;;;11.70;2.97;;;11.40;99.90;;;;;;5004226;28;20226;-77
2022/02/14 11:43:19;;;;;;;13.80;2.83;;;11.50;99.90;;;;;;5002940;28;20302;-81
2022/02/14 11:46:17;;;;;;;11.27;2.83;;;11.50;99.90;;;;;;4996982;28;21014;-79
2022/02/14 11:48:45;;;;;;;19.57;2.90;;;11.50;99.90;;;;;;5007883;28;20229;-79
2022/02/14 11:51:14;;;;;;;15.43;2.70;;;11.40;99.90;;;;;;5007174;28;20199;-79
2022/02/14 11:53:44;;;;;;;13.33;3.50;;;11.30;99.90;;;;;;4988427;28;20219;-78
2022/02/14 11:56:31;;;;;;;12.97;3.27;;;11.20;99.90;;;;;;4987993;28;20203;-78
2022/02/14 11:59:07;;;;;;;19.63;2.70;;;11.30;99.90;;;;;;4988789;28;20200;-78
2022/02/14 12:01:38;;;;;;;20.63;3.47;;;11.30;99.90;;;;;;4988497;28;20306;-76
2022/02/14 12:04:41;;;;;;;13.97;3.10;;;11.30;99.90;;;;;;4987052;28;20211;-76
2022/02/14 12:07:34;;;;;;;14.03;2.63;;;11.40;99.90;;;;;;4908161;29;20266;-77
2022/02/14 12:10:22;;;;;;;10.60;2.80;;;11.40;99.90;;;;;;4985856;28;20656;-75
2022/02/14 12:13:16;;;;;;;11.70;2.97;;;11.50;99.90;;;;;;4997194;28;20218;-76
2022/02/14 12:21:27;;;;;;;16.30;3.13;;;11.40;99.90;;;;;;5002490;28;20288;-76
2022/02/14 12:23:58;;;;;;;9.67;3.23;;;11.50;99.90;;;;;;5006546;28;20211;-75
2022/02/14 12:26:27;;;;;;;12.23;2.70;;;11.60;99.90;;;;;;5005453;28;20258;-76
2022/02/14 12:31:48;;;;;;;15.23;3.13;;;11.50;99.90;;;;;;4986026;28;20211;-78
2022/02/14 12:34:28;;;;;;;8.10;2.20;;;11.50;99.90;;;;;;4987035;28;20222;-77
2022/02/14 12:37:00;;;;;;;14.07;3.33;;;11.40;99.90;;;;;;4991745;28;20227;-77
2022/02/14 12:39:32;;;;;;;15.00;2.97;;;11.40;99.90;;;;;;4998066;28;20238;-77
2022/02/14 12:42:07;;;;;;;12.50;2.83;;;11.40;99.90;;;;;;5006882;28;20295;-75
2022/02/14 12:44:35;;;;;;;12.47;2.27;;;11.40;99.90;;;;;;5006485;28;20569;-79
2022/02/14 12:47:02;;;;;;;12.43;2.63;;;11.30;99.90;;;;;;5006348;28;20211;-78
2022/02/14 12:49:30;;;;;;;11.10;2.77;;;11.40;99.90;;;;;;4997669;28;20231;-80
2022/02/14 12:52:09;;;;;;;7.83;2.73;;;11.50;99.90;;;;;;4987363;28;20211;-78
2022/02/14 12:54:36;;;;;;;10.30;2.40;;;11.40;99.90;;;;;;4987372;28;20198;-79
2022/02/14 12:57:03;;;;;;;19.80;3.30;;;11.40;99.90;;;;;;4987273;28;20200;-78
2022/02/14 12:59:34;;;;;;;12.17;2.43;;;11.40;99.90;;;;;;4998222;28;20199;-79